| time (UTC) | temp F | wind direction | speed MPH | gust MPH | rain 1hr in | rain 24hr in | rain mn in | humidity % | barometer mb |
| 20260905000001 | 74 | 261 | 0.0 | 0.0 | 0.00 | 0.28 | 0.16 | 93 | 1013.5 |
| 20260904234500 | 74 | 261 | 0.0 | 0.0 | 0.00 | 0.28 | 0.16 | 93 | 1013.6 |
| 20260904233100 | 75 | 261 | 0.0 | 0.0 | 0.00 | 0.28 | 0.16 | 93 | 1013.8 |
| 20260904231600 | 75 | 261 | 0.0 | 0.0 | 0.00 | 0.28 | 0.16 | 93 | 1014.0 |
| 20260904230109 | 75 | 260 | 0.0 | 0.0 | 0.00 | 1.13 | 0.16 | 93 | 1013.4 |
| 20260904224609 | 76 | 260 | 0.0 | 0.0 | 0.00 | 1.13 | 0.16 | 93 | 1013.7 |
| 20260904223057 | 75 | 261 | 0.0 | 0.0 | 0.00 | 1.13 | 0.16 | 92 | 1013.7 |
| 20260904221557 | 76 | 261 | 0.0 | 0.0 | 0.00 | 1.13 | 0.16 | 92 | 1013.4 |
| 20260904220058 | 76 | 260 | 0.0 | 0.0 | 0.00 | 1.29 | 0.16 | 91 | 1013.2 |
| 20260904214558 | 76 | 260 | 0.0 | 0.0 | 0.00 | 1.29 | 0.16 | 91 | 1013.0 |
| 20260904213103 | 76 | 260 | 0.0 | 0.0 | 0.00 | 1.29 | 0.16 | 91 | 1012.7 |
| 20260904211600 | 76 | 261 | 0.0 | 0.0 | 0.00 | 1.29 | 0.16 | 92 | 1012.5 |
| 20260904210107 | 76 | 261 | 0.0 | 0.0 | 0.00 | 1.29 | 0.16 | 92 | 1012.4 |
| 20260904204554 | 76 | 261 | 0.0 | 0.0 | 0.00 | 1.29 | 0.16 | 92 | 1011.9 |
| 20260904203051 | 75 | 260 | 0.0 | 0.0 | 0.00 | 1.29 | 0.16 | 92 | 1011.9 |
| 20260904201548 | 75 | 261 | 0.0 | 0.0 | 0.00 | 1.29 | 0.16 | 92 | 1012.2 |
| 20260904200046 | 75 | 261 | 0.0 | 0.0 | 0.00 | 1.29 | 0.16 | 93 | 1012.7 |
| 20260904194543 | 74 | 265 | 0.0 | 0.0 | 0.00 | 1.29 | 0.16 | 94 | 1013.4 |
| 20260904193042 | 74 | 270 | 0.0 | 0.0 | 0.00 | 1.29 | 0.16 | 95 | 1013.6 |
| 20260904191538 | 74 | 270 | 0.0 | 0.0 | 0.00 | 1.29 | 0.16 | 96 | 1013.6 |
| 20260904190038 | 73 | 270 | 0.0 | 0.0 | 0.01 | 1.29 | 0.16 | 96 | 1014.0 |
| 20260904184537 | 73 | 270 | 0.0 | 0.0 | 0.01 | 1.29 | 0.16 | 96 | 1014.1 |
| 20260904183035 | 73 | 269 | 0.0 | 0.0 | 0.01 | 1.29 | 0.16 | 97 | 1013.9 |
| 20260904181532 | 72 | 269 | 0.0 | 2.0 | 0.01 | 1.29 | 0.16 | 96 | 1014.3 |
| 20260904180033 | 72 | 245 | 0.0 | 0.0 | 0.00 | 1.28 | 0.15 | 96 | 1014.7 |
| 20260904174532 | 73 | 253 | 0.0 | 5.0 | 0.01 | 1.28 | 0.15 | 96 | 1016.1 |
| 20260904173033 | 73 | 225 | 1.0 | 3.0 | 0.01 | 1.28 | 0.15 | 96 | 1016.2 |
| 20260904171538 | 72 | 255 | 0.0 | 5.0 | 0.03 | 1.28 | 0.15 | 97 | 1015.9 |
| 20260904170027 | 72 | 294 | 0.0 | 1.0 | 0.04 | 1.28 | 0.15 | 97 | 1016.0 |
| 20260904164530 | 72 | 311 | 0.0 | 0.0 | 0.04 | 1.27 | 0.14 | 97 | 1016.2 |
| 20260904163027 | 71 | 44 | 0.0 | 2.0 | 0.04 | 1.27 | 0.14 | 97 | 1016.0 |
| 20260904161525 | 71 | 313 | 0.0 | 0.0 | 0.02 | 1.25 | 0.12 | 97 | 1016.2 |
| 20260904160042 | 71 | 349 | 0.0 | 1.0 | 0.01 | 1.24 | 0.11 | 96 | 1016.4 |
| 20260904154525 | 72 | 281 | 0.0 | 4.0 | 0.00 | 1.23 | 0.10 | 97 | 1016.5 |
| 20260904153022 | 72 | 285 | 0.0 | 1.0 | 0.00 | 1.23 | 0.10 | 97 | 1016.1 |
| 20260904151525 | 71 | 290 | 0.0 | 0.0 | 0.02 | 1.23 | 0.10 | 97 | 1015.0 |
| 20260904150032 | 71 | 289 | 0.0 | 0.0 | 0.05 | 1.23 | 0.10 | 97 | 1014.7 |
| 20260904144515 | 70 | 289 | 0.0 | 0.0 | 0.06 | 1.23 | 0.10 | 97 | 1015.3 |
| 20260904143013 | 70 | 289 | 0.0 | 0.0 | 0.08 | 1.23 | 0.10 | 97 | 1015.5 |
| 20260904141521 | 69 | 289 | 0.0 | 0.0 | 0.07 | 1.20 | 0.07 | 97 | 1015.5 |
| 20260904140023 | 69 | 289 | 0.0 | 0.0 | 0.05 | 1.18 | 0.05 | 96 | 1015.6 |
| 20260904134511 | 70 | 289 | 0.0 | 0.0 | 0.04 | 1.17 | 0.04 | 96 | 1015.7 |
| 20260904133011 | 70 | 289 | 0.0 | 0.0 | 0.02 | 1.14 | 0.02 | 97 | 1015.9 |
| 20260904131508 | 70 | 289 | 0.0 | 2.0 | 0.00 | 1.12 | 0.00 | 97 | 1015.7 |
| 20260904130015 | 69 | 296 | 0.0 | 0.0 | 0.00 | 1.12 | 0.00 | 97 | 1015.2 |
| 20260904124506 | 69 | 296 | 0.0 | 0.0 | 0.00 | 1.12 | 0.00 | 97 | 1015.3 |
| 20260904123003 | 69 | 296 | 0.0 | 0.0 | 0.00 | 1.12 | 0.00 | 97 | 1015.1 |
| 20260904121502 | 68 | 296 | 0.0 | 0.0 | 0.00 | 1.12 | 0.00 | 97 | 1014.9 |
| 20260904120000 | 68 | 296 | 0.0 | 0.0 | 0.00 | 1.12 | 0.00 | 96 | 1014.9 |
| 20260904114605 | 68 | 296 | 0.0 | 0.0 | 0.00 | 1.12 | 0.00 | 96 | 1014.8 |
| 20260904114521 | 68 | 295 | 0.0 | 0.0 | 0.00 | 1.12 | 0.00 | 96 | 1014.8 |
| 20260904113100 | 68 | 296 | 0.0 | 0.0 | 0.00 | 1.12 | 0.00 | 96 | 1014.8 |
| 20260904111558 | 68 | 296 | 0.0 | 0.0 | 0.00 | 1.12 | 0.00 | 96 | 1014.7 |
| 20260904110058 | 68 | 296 | 0.0 | 0.0 | 0.00 | 1.12 | 0.00 | 96 | 1014.6 |
| 20260904104601 | 67 | 296 | 0.0 | 0.0 | 0.00 | 1.12 | 0.00 | 96 | 1014.2 |
| 20260904103056 | 67 | 296 | 0.0 | 0.0 | 0.00 | 1.12 | 0.00 | 96 | 1014.3 |
| 20260904101557 | 67 | 296 | 0.0 | 0.0 | 0.00 | 1.12 | 0.00 | 96 | 1014.1 |
| 20260904100108 | 67 | 296 | 0.0 | 0.0 | 0.00 | 1.12 | 0.00 | 96 | 1014.0 |
| 20260904094555 | 68 | 296 | 0.0 | 0.0 | 0.00 | 1.12 | 0.00 | 96 | 1014.4 |
| 20260904093056 | 68 | 296 | 0.0 | 0.0 | 0.00 | 1.12 | 0.00 | 96 | 1014.6 |
| 20260904091554 | 68 | 296 | 0.0 | 0.0 | 0.00 | 1.12 | 0.00 | 96 | 1014.3 |
| 20260904090054 | 68 | 296 | 0.0 | 0.0 | 0.00 | 1.12 | 0.00 | 96 | 1014.2 |
| 20260904084556 | 68 | 296 | 0.0 | 0.0 | 0.00 | 1.12 | 0.00 | 96 | 1014.2 |
| 20260904083051 | 68 | 296 | 0.0 | 0.0 | 0.00 | 1.12 | 0.00 | 96 | 1014.0 |
| 20260904081551 | 68 | 296 | 0.0 | 0.0 | 0.00 | 1.12 | 0.00 | 96 | 1014.0 |
| 20260904080051 | 68 | 296 | 0.0 | 0.0 | 0.00 | 1.12 | 0.00 | 96 | 1014.3 |
| 20260904074556 | 68 | 296 | 0.0 | 0.0 | 0.00 | 1.12 | 0.00 | 96 | 1014.3 |
| 20260904073054 | 68 | 296 | 0.0 | 0.0 | 0.00 | 1.12 | 0.00 | 96 | 1014.5 |
| 20260904071547 | 68 | 296 | 0.0 | 0.0 | 0.00 | 1.12 | 0.00 | 96 | 1014.7 |
| 20260904070047 | 68 | 296 | 0.0 | 0.0 | 0.00 | 1.12 | 0.00 | 96 | 1014.5 |
| 20260904064546 | 68 | 296 | 0.0 | 0.0 | 0.00 | 1.12 | 0.00 | 96 | 1014.5 |
| 20260904063055 | 68 | 296 | 0.0 | 0.0 | 0.00 | 1.12 | 0.00 | 96 | 1014.5 |
| 20260904061547 | 68 | 296 | 0.0 | 0.0 | 0.00 | 1.12 | 0.00 | 96 | 1014.5 |
| 20260904060045 | 68 | 296 | 0.0 | 0.0 | 0.00 | 1.12 | 0.00 | 96 | 1014.6 |
| 20260904054544 | 68 | 296 | 0.0 | 0.0 | 0.00 | 1.12 | 0.00 | 96 | 1014.6 |
| 20260904053043 | 68 | 296 | 0.0 | 0.0 | 0.00 | 1.12 | 0.00 | 96 | 1014.5 |
| 20260904051557 | 68 | 296 | 0.0 | 0.0 | 0.00 | 1.12 | 0.00 | 96 | 1014.4 |
| 20260904050042 | 69 | 296 | 0.0 | 0.0 | 0.00 | 1.12 | 0.00 | 96 | 1014.5 |
| 20260904044541 | 69 | 296 | 0.0 | 0.0 | 0.00 | 1.12 | 0.00 | 96 | 1014.5 |
| 20260904043039 | 69 | 294 | 0.0 | 0.0 | 0.00 | 1.12 | 0.00 | 95 | 1014.2 |
| 20260904041542 | 69 | 294 | 0.0 | 0.0 | 0.00 | 1.12 | 0.00 | 96 | 1014.3 |
| 20260904040038 | 69 | 293 | 0.0 | 0.0 | 0.01 | 1.12 | 1.12 | 96 | 1014.1 |
| 20260904034536 | 69 | 292 | 0.0 | 0.0 | 0.05 | 1.12 | 1.12 | 96 | 1014.0 |
| 20260904033035 | 69 | 285 | 0.0 | 3.0 | 0.05 | 1.12 | 1.12 | 96 | 1013.6 |
| 20260904031533 | 69 | 103 | 0.0 | 0.0 | 0.05 | 1.12 | 1.12 | 95 | 1013.6 |
| 20260904030033 | 69 | 62 | 0.0 | 0.0 | 0.04 | 1.12 | 1.12 | 95 | 1013.6 |
| 20260904024533 | 69 | 61 | 0.0 | 0.0 | 0.00 | 1.08 | 1.08 | 95 | 1013.6 |
| 20260904023031 | 69 | 62 | 0.0 | 0.0 | 0.00 | 1.08 | 1.08 | 95 | 1013.7 |
| 20260904021535 | 69 | 67 | 0.0 | 0.0 | 0.00 | 1.08 | 1.08 | 95 | 1013.7 |
| 20260904020031 | 69 | 67 | 0.0 | 0.0 | 0.00 | 1.08 | 1.08 | 95 | 1013.3 |
| 20260904014531 | 69 | 67 | 0.0 | 0.0 | 0.00 | 1.08 | 1.08 | 95 | 1013.3 |
| 20260904013029 | 70 | 93 | 0.0 | 0.0 | 0.00 | 1.08 | 1.08 | 95 | 1013.1 |
| 20260904011535 | 70 | 97 | 0.0 | 0.0 | 0.00 | 1.08 | 1.08 | 95 | 1013.2 |
| 20260904010040 | 70 | 78 | 0.0 | 0.0 | 0.00 | 1.08 | 1.08 | 95 | 1013.4 |
| 20260904004527 | 70 | 79 | 0.0 | 0.0 | 0.01 | 1.08 | 1.08 | 95 | 1013.4 |
| 20260904003028 | 70 | 87 | 0.0 | 0.0 | 0.01 | 1.08 | 1.08 | 94 | 1013.4 |
| 20260904001526 | 70 | 90 | 0.0 | 0.0 | 0.03 | 1.08 | 1.08 | 95 | 1013.7 |